Anzahl Datensätze: 48
min. Temperatur: 6.3 °C
max. Temperatur: 9.0 °C
max. Windgeschwindigkeit: 25.9 km/h
Niederschlagsumme: 0.2 mm
| Datum |
Zeit |
Temp °C |
Feuchte % |
Taupunkt °C |
Luftdruck hPa |
Wind km/h |
Windrichtung |
Strahlung w/m² |
Niederschlag mm |
|---|---|---|---|---|---|---|---|---|---|
| 09.12.2023 | 00:00 | 6.3 | 95 | 5.6 | 1016.4 | 0.0 | WNW | 0 | 0.0 |
| 09.12.2023 | 00:30 | 6.3 | 95 | 5.6 | 1016.2 | 0.0 | WNW | 0 | 0.0 |
| 09.12.2023 | 01:00 | 6.4 | 94 | 5.5 | 1016.2 | 0.0 | NO | 0 | 0.0 |
| 09.12.2023 | 01:30 | 6.4 | 94 | 5.5 | 1016.4 | 0.0 | NO | 0 | 0.0 |
| 09.12.2023 | 02:00 | 6.4 | 94 | 5.5 | 1016.2 | 0.0 | N | 0 | 0.0 |
| 09.12.2023 | 02:30 | 6.6 | 94 | 5.7 | 1016.0 | 0.0 | S | 0 | 0.0 |
| 09.12.2023 | 03:00 | 6.7 | 94 | 5.8 | 1016.0 | 0.0 | OSO | 0 | 0.0 |
| 09.12.2023 | 03:30 | 6.7 | 94 | 5.8 | 1015.7 | 0.0 | O | 0 | 0.0 |
| 09.12.2023 | 04:00 | 6.8 | 94 | 5.9 | 1015.3 | 0.0 | WNW | 0 | 0.0 |
| 09.12.2023 | 04:30 | 6.8 | 94 | 5.9 | 1015.2 | 0.0 | SW | 0 | 0.0 |
| 09.12.2023 | 05:00 | 6.8 | 94 | 5.9 | 1014.9 | 0.0 | W | 0 | 0.0 |
| 09.12.2023 | 05:30 | 6.9 | 93 | 5.8 | 1014.6 | 0.0 | WNW | 0 | 0.0 |
| 09.12.2023 | 06:00 | 6.9 | 92 | 5.7 | 1014.2 | 0.0 | N | 0 | 0.0 |
| 09.12.2023 | 06:30 | 6.8 | 92 | 5.6 | 1014.0 | 0.0 | NNW | 0 | 0.0 |
| 09.12.2023 | 07:00 | 6.8 | 92 | 5.6 | 1013.8 | 0.0 | NW | 0 | 0.0 |
| 09.12.2023 | 07:30 | 6.9 | 92 | 5.7 | 1013.9 | 0.0 | NW | 0 | 0.0 |
| 09.12.2023 | 08:00 | 6.9 | 92 | 5.7 | 1013.3 | 0.0 | WNW | 0 | 0.0 |
| 09.12.2023 | 08:30 | 7.1 | 92 | 5.9 | 1012.9 | 0.0 | O | 0 | 0.0 |
| 09.12.2023 | 09:00 | 7.1 | 92 | 5.9 | 1012.5 | 0.0 | SW | 0 | 0.0 |
| 09.12.2023 | 09:30 | 7.1 | 92 | 5.9 | 1011.8 | 0.0 | NO | 7 | 0.0 |
| 09.12.2023 | 10:00 | 6.9 | 92 | 5.7 | 1011.4 | 0.0 | OSO | 7 | 0.0 |
| 09.12.2023 | 10:30 | 7.0 | 93 | 5.9 | 1011.1 | 0.0 | SSW | 11 | 0.0 |
| 09.12.2023 | 11:00 | 7.1 | 92 | 5.9 | 1010.2 | 0.0 | NO | 21 | 0.0 |
| 09.12.2023 | 11:30 | 7.1 | 91 | 5.7 | 1009.7 | 0.0 | NW | 51 | 0.0 |
| 09.12.2023 | 12:00 | 7.1 | 91 | 5.7 | 1008.3 | 0.0 | NO | 40 | 0.0 |
| 09.12.2023 | 12:30 | 7.1 | 91 | 5.7 | 1007.4 | 0.0 | W | 21 | 0.0 |
| 09.12.2023 | 13:00 | 6.9 | 90 | 5.4 | 1007.0 | 0.0 | WSW | 12 | 0.0 |
| 09.12.2023 | 13:30 | 6.5 | 90 | 5.0 | 1006.0 | 0.0 | W | 12 | 0.0 |
| 09.12.2023 | 14:00 | 6.4 | 90 | 4.9 | 1004.4 | 0.0 | NNO | 49 | 0.0 |
| 09.12.2023 | 14:30 | 6.5 | 91 | 5.1 | 1003.0 | 0.0 | WSW | 19 | 0.0 |
| 09.12.2023 | 15:00 | 6.6 | 91 | 5.2 | 1002.1 | 0.0 | ONO | 33 | 0.0 |
| 09.12.2023 | 15:30 | 6.5 | 91 | 5.1 | 1001.4 | 0.0 | SO | 49 | 0.2 |
| 09.12.2023 | 16:00 | 6.6 | 92 | 5.4 | 1000.4 | 0.0 | NO | 0 | 0.2 |
| 09.12.2023 | 16:30 | 6.6 | 92 | 5.4 | 999.8 | 0.0 | W | 0 | 0.2 |
| 09.12.2023 | 17:00 | 6.7 | 92 | 5.5 | 999.0 | 0.0 | NW | 0 | 0.2 |
| 09.12.2023 | 17:30 | 6.9 | 93 | 5.8 | 999.0 | 0.0 | WNW | 0 | 0.2 |
| 09.12.2023 | 18:00 | 7.0 | 93 | 5.9 | 998.4 | 0.0 | NNW | 0 | 0.2 |
| 09.12.2023 | 18:30 | 7.1 | 93 | 6.0 | 998.3 | 0.0 | N | 0 | 0.2 |
| 09.12.2023 | 19:00 | 7.3 | 94 | 6.4 | 998.3 | 0.0 | N | 0 | 0.2 |
| 09.12.2023 | 19:30 | 7.4 | 94 | 6.5 | 998.5 | 0.0 | WSW | 0 | 0.2 |
| 09.12.2023 | 20:00 | 8.3 | 96 | 7.7 | 998.9 | 0.0 | W | 0 | 0.2 |
| 09.12.2023 | 20:30 | 8.9 | 95 | 8.1 | 1000.1 | 0.0 | WSW | 0 | 0.2 |
| 09.12.2023 | 21:00 | 9.0 | 90 | 7.4 | 1000.8 | 0.0 | NNW | 0 | 0.2 |
| 09.12.2023 | 21:30 | 8.7 | 88 | 6.8 | 1001.9 | 0.0 | WNW | 0 | 0.2 |
| 09.12.2023 | 22:00 | 8.4 | 87 | 6.4 | 1002.4 | 0.0 | WNW | 0 | 0.2 |
| 09.12.2023 | 22:30 | 8.1 | 88 | 6.2 | 1003.3 | 0.0 | NNW | 0 | 0.2 |
| 09.12.2023 | 23:00 | 8.2 | 89 | 6.5 | 1004.0 | 0.0 | W | 0 | 0.2 |
| 09.12.2023 | 23:30 | 8.4 | 88 | 6.5 | 1004.9 | 0.0 | WNW | 0 | 0.2 |